Impacts TAF Board
For situational awareness. Not to be used for flight planning purposes.
IDs:

KMOB - Mobile Rgnl, AL, US

Issued at 2324 UTC 22 Sep 2018
Updated at 0245 UTC 23 Sep 2018
Potential Impact None Slight Moderate High
Time0156Z 23/03Z 23/04Z 23/05Z 23/06Z 23/07Z 23/08Z 23/09Z 23/10Z 23/11Z 23/12Z 23/13Z 23/14Z 23/15Z>>
Type OBS PRVL PRVL PRVL PRVL PRVL PRVL PRVL PRVL PRVL PRVL PRVL PRVL PRVL
VIS 10 >6 >6 >6 >6 >6 >6 >6 >6 >6 >6 >6 >6 >6
CIG -- -- -- -- -- -- -- -- -- -- -- -- -- 250
Cover CLR SCT SCT SCT SCT SCT SCT SCT SCT SCT SCT SCT SCT BKN
FltCat VFR VFR VFR VFR VFR VFR VFR VFR VFR VFR VFR VFR VFR VFR
WX -- -- -- -- -- -- -- -- -- -- -- -- -- --
WDir VRB 90 90 90 90 90 90 90 90 90 90 90 90 100
WSpd 0 4 4 4 4 4 4 4 4 4 4 4 4 6
WGst -- -- -- -- -- -- -- -- -- -- -- -- -- --
Raw TAF
KMOB 222324Z 2300/2324 VRB10G15KT P6SM VCTS SCT030CB
  FM230100 09004KT P6SM SCT050
  FM231500 10006KT P6SM BKN250
  FM231800 13008KT P6SM VCTS SCT035CB


Raw METAR
KMOB 230156Z 00000KT 10SM CLR 24/23 A3002 RMK AO2 SLP162 T02440233
KMOB 230056Z 00000KT 10SM FEW030 SCT100 SCT250 24/23 A3001 RMK AO2 SLP158 T02440228
KMOB 222356Z 09003KT 10SM FEW030 SCT100 SCT200 26/23 A3000 RMK AO2 SLP155 CB DSNT E T02560228 10322 20256 53010

METAR Board
Radar Display
Forecast Discussion
For situational awareness. Not to be used for flight planning purposes.